Time;durP1;ratioP1;P1;durP2;ratioP2;P2;SDS_P1;SDS_P2;PMS_P1;PMS_P2;Temp;Humidity;BMP_temperature;BMP_pressure;BME280_temperature;BME280_humidity;BME280_pressure;Samples;Min_cycle;Max_cycle;Signal;HPM_P1;HPM_P2
2024/01/06 00:01:12;;;;;;;0.77;0.75;;;;;;;9.75;56.81;100942.69;5044534;28;20395;-88
2024/01/06 00:03:38;;;;;;;0.80;0.80;;;;;;;9.56;57.63;100938.44;5052283;28;20384;-87
2024/01/06 00:06:04;;;;;;;2.17;1.07;;;;;;;9.63;57.64;100941.31;5054401;28;20419;-89
2024/01/06 00:08:29;;;;;;;1.45;1.35;;;;;;;9.71;57.21;100959.88;5051867;28;20388;-88
2024/01/06 00:10:55;;;;;;;1.20;1.10;;;;;;;9.77;57.02;100956.59;5041709;28;20383;-88
2024/01/06 00:13:21;;;;;;;2.00;1.00;;;;;;;9.65;57.38;100948.13;5045276;28;20392;-88
2024/01/06 00:15:46;;;;;;;0.80;0.80;;;;;;;9.72;56.97;100950.94;5041156;28;20397;-86
2024/01/06 00:18:12;;;;;;;0.80;0.67;;;;;;;9.77;56.91;100944.19;5041342;28;20402;-86
2024/01/06 00:20:38;;;;;;;1.13;1.02;;;;;;;9.80;56.75;100940.41;5049573;28;20973;-88
2024/01/06 00:23:03;;;;;;;1.10;0.60;;;;;;;9.88;56.73;100937.75;5048485;28;20900;-89
2024/01/06 00:25:29;;;;;;;0.65;0.50;;;;;;;9.94;56.55;100939.78;5046598;28;20431;-90
2024/01/06 00:27:54;;;;;;;0.47;0.47;;;;;;;9.98;56.40;100929.72;5051115;28;20460;-86
2024/01/06 00:30:20;;;;;;;1.00;1.00;;;;;;;10.02;56.04;100941.63;5051357;28;20429;-85
2024/01/06 00:32:46;;;;;;;0.93;0.93;;;;;;;9.85;56.25;100934.59;5049531;28;20393;-86
2024/01/06 00:35:11;;;;;;;1.30;1.20;;;;;;;9.72;56.43;100927.97;5041280;28;20442;-87
2024/01/06 00:37:37;;;;;;;0.73;0.73;;;;;;;9.73;56.66;100932.25;5046990;28;20392;-86
2024/01/06 00:40:03;;;;;;;0.45;0.45;;;;;;;9.87;56.37;100930.84;5043994;28;20395;-90
2024/01/06 00:42:29;;;;;;;0.32;0.32;;;;;;;10.01;56.04;100936.50;5049539;28;20404;-90
2024/01/06 00:44:55;;;;;;;1.02;0.82;;;;;;;9.89;56.05;100931.50;5048540;28;20393;-87
2024/01/06 00:47:23;;;;;;;0.50;0.50;;;;;;;9.91;55.97;100937.47;5048121;28;20395;-88
2024/01/06 00:49:49;;;;;;;0.50;0.50;;;;;;;10.00;55.90;100950.75;5044151;28;20394;-88
2024/01/06 00:52:20;;;;;;;1.30;0.80;;;;;;;10.01;55.57;100940.00;5043467;28;20408;-87
2024/01/06 00:54:47;;;;;;;0.75;0.75;;;;;;;9.82;55.64;100940.25;5031029;28;20413;-87
2024/01/06 00:57:12;;;;;;;0.88;0.75;;;;;;;9.93;55.53;100951.38;5049517;28;20430;-89
2024/01/06 00:59:38;;;;;;;1.00;0.90;;;;;;;10.03;55.50;100951.25;5048629;28;20763;-87
2024/01/06 01:02:04;;;;;;;0.57;0.53;;;;;;;10.08;55.30;100945.47;5047593;28;20467;-88
2024/01/06 01:04:29;;;;;;;0.80;0.60;;;;;;;10.11;55.07;100938.00;5047214;28;20893;-88
2024/01/06 01:06:55;;;;;;;0.60;0.60;;;;;;;10.08;54.96;100927.75;5047386;28;20476;-87
2024/01/06 01:09:20;;;;;;;0.95;0.65;;;;;;;9.98;54.78;100913.81;5046965;28;20438;-87
2024/01/06 01:11:46;;;;;;;0.90;0.80;;;;;;;9.96;55.25;100910.50;5047810;28;20922;-87
2024/01/06 01:14:12;;;;;;;0.93;0.60;;;;;;;10.07;54.64;100925.28;5047898;28;20407;-88
2024/01/06 01:16:37;;;;;;;0.73;0.73;;;;;;;9.98;54.82;100919.13;5049645;28;20808;-88
2024/01/06 01:19:03;;;;;;;0.37;0.37;;;;;;;9.91;55.20;100921.56;5050061;28;20381;-88
2024/01/06 01:21:28;;;;;;;0.90;0.70;;;;;;;10.00;54.65;100929.56;5048497;28;20383;-89
2024/01/06 01:23:54;;;;;;;0.40;0.40;;;;;;;9.98;54.46;100927.06;5048247;28;20511;-87
2024/01/06 01:26:20;;;;;;;0.50;0.50;;;;;;;9.95;54.70;100930.84;5049766;28;20428;-89
2024/01/06 01:28:45;;;;;;;0.57;0.57;;;;;;;9.95;54.54;100920.25;5048262;28;20455;-87
2024/01/06 01:31:13;;;;;;;0.40;0.40;;;;;;;10.07;54.36;100912.84;5048520;28;20841;-88
2024/01/06 01:33:38;;;;;;;1.10;0.82;;;;;;;10.01;54.43;100916.16;5048113;28;20959;-88
2024/01/06 01:36:04;;;;;;;0.77;0.77;;;;;;;9.76;54.98;100904.66;5049753;28;20448;-86
2024/01/06 01:38:30;;;;;;;0.47;0.40;;;;;;;9.63;54.92;100897.13;5049022;28;20463;-88
2024/01/06 01:40:55;;;;;;;0.83;0.60;;;;;;;9.70;55.50;100899.97;5049522;28;20397;-87
2024/01/06 01:43:21;;;;;;;0.63;0.63;;;;;;;9.77;54.85;100901.00;5055073;28;20392;-87
2024/01/06 01:45:51;;;;;;;0.63;0.63;;;;;;;9.92;54.80;100911.81;5065103;28;20414;-82
2024/01/06 01:48:18;;;;;;;0.40;0.40;;;;;;;9.95;54.51;100907.00;5069123;28;20389;-88
2024/01/06 01:50:44;;;;;;;0.55;0.55;;;;;;;9.84;54.70;100891.44;5059590;28;20388;-86
2024/01/06 01:53:12;;;;;;;0.80;0.80;;;;;;;9.80;54.75;100898.03;5048972;28;20403;-86
2024/01/06 01:55:40;;;;;;;1.00;0.95;;;;;;;9.43;55.49;100891.25;5048479;28;20423;-87
2024/01/06 01:58:06;;;;;;;0.82;0.82;;;;;;;9.36;56.25;100885.78;5048424;28;20474;-86
2024/01/06 02:00:31;;;;;;;2.08;0.82;;;;;;;9.53;56.00;100877.91;5048017;28;20408;-87
2024/01/06 02:02:59;;;;;;;1.08;1.08;;;;;;;9.59;55.26;100873.81;5049622;28;20439;-86
2024/01/06 02:05:25;;;;;;;0.85;0.77;;;;;;;9.52;55.51;100866.50;5051367;28;20392;-85
2024/01/06 02:07:51;;;;;;;0.63;0.63;;;;;;;9.55;55.53;100873.28;5047530;28;20427;-84
2024/01/06 02:10:18;;;;;;;0.52;0.52;;;;;;;9.65;54.95;100878.44;5047249;28;20396;-86
2024/01/06 02:12:43;;;;;;;0.52;0.43;;;;;;;9.75;55.02;100873.88;5047129;28;20400;-85
2024/01/06 02:15:09;;;;;;;1.00;0.40;;;;;;;9.77;54.60;100864.75;5046752;28;20401;-86
2024/01/06 02:17:35;;;;;;;0.32;0.32;;;;;;;9.79;54.74;100861.94;5047565;28;20381;-86
2024/01/06 02:20:01;;;;;;;0.80;0.67;;;;;;;9.73;54.32;100862.63;5046775;28;20427;-85
2024/01/06 02:22:26;;;;;;;0.90;0.90;;;;;;;9.72;54.34;100868.88;5047185;28;20389;-85
2024/01/06 02:24:52;;;;;;;0.47;0.47;;;;;;;9.70;54.83;100863.75;5048213;28;20475;-87
2024/01/06 02:27:18;;;;;;;0.95;0.65;;;;;;;9.66;54.89;100864.25;5046719;28;20412;-88
2024/01/06 02:29:44;;;;;;;1.93;0.93;;;;;;;9.47;55.25;100854.72;5048504;28;20384;-86
2024/01/06 02:32:09;;;;;;;0.82;0.65;;;;;;;9.33;55.70;100853.53;5048187;28;20385;-89
2024/01/06 02:34:38;;;;;;;0.52;0.52;;;;;;;9.44;55.34;100855.06;5048993;28;20420;-87
2024/01/06 02:37:03;;;;;;;0.85;0.85;;;;;;;9.38;55.22;100849.41;5049253;28;20441;-86
2024/01/06 02:39:29;;;;;;;1.27;1.17;;;;;;;9.26;55.17;100845.38;5049699;28;20385;-88
2024/01/06 02:41:55;;;;;;;0.60;0.60;;;;;;;9.31;55.34;100850.19;5048072;28;20389;-86
2024/01/06 02:44:20;;;;;;;0.60;0.50;;;;;;;9.33;55.27;100848.25;5049273;28;20424;-85
2024/01/06 02:46:46;;;;;;;1.30;1.10;;;;;;;9.33;54.90;100843.78;5048189;28;20400;-84
2024/01/06 02:49:11;;;;;;;1.50;1.30;;;;;;;9.38;54.69;100848.56;5048270;28;20380;-85
2024/01/06 02:51:37;;;;;;;0.57;0.57;;;;;;;9.24;55.24;100838.56;5046368;28;20389;-85
2024/01/06 02:54:03;;;;;;;0.80;0.70;;;;;;;9.27;55.55;100851.50;5045894;28;20860;-88
2024/01/06 02:56:29;;;;;;;0.52;0.45;;;;;;;9.25;54.96;100845.53;5047271;28;20385;-85
2024/01/06 02:58:55;;;;;;;0.98;0.57;;;;;;;9.29;55.07;100860.94;5046790;28;20377;-86
2024/01/06 03:01:20;;;;;;;1.60;1.10;;;;;;;9.05;55.44;100850.22;5046277;28;20531;-85
2024/01/06 03:03:46;;;;;;;0.70;0.70;;;;;;;9.03;55.82;100847.75;5045693;28;20454;-88
2024/01/06 03:06:11;;;;;;;0.50;0.50;;;;;;;8.97;55.48;100841.28;5045370;28;20899;-87
2024/01/06 03:08:37;;;;;;;1.00;1.00;;;;;;;9.01;55.43;100839.13;5046364;28;20381;-86
2024/01/06 03:11:05;;;;;;;0.80;0.80;;;;;;;9.06;55.36;100836.88;5046257;28;20476;-86
2024/01/06 03:13:30;;;;;;;0.80;0.80;;;;;;;8.83;56.01;100833.91;5046366;28;20847;-86
2024/01/06 03:15:56;;;;;;;0.90;0.90;;;;;;;8.92;56.02;100845.38;5047171;28;20415;-88
2024/01/06 03:18:22;;;;;;;0.97;0.87;;;;;;;8.97;56.11;100835.16;5047857;28;20433;-85
2024/01/06 03:20:47;;;;;;;0.68;0.68;;;;;;;8.94;55.96;100833.63;5046355;28;20425;-87
2024/01/06 03:23:13;;;;;;;1.20;0.80;;;;;;;8.98;55.71;100844.72;5046684;28;20454;-85
2024/01/06 03:25:38;;;;;;;0.53;0.53;;;;;;;8.96;56.03;100844.06;5046426;28;20426;-86
2024/01/06 03:28:04;;;;;;;0.50;0.50;;;;;;;8.77;55.95;100832.72;5046500;28;20424;-88
2024/01/06 03:30:30;;;;;;;1.05;1.05;;;;;;;8.53;57.01;100843.94;5046597;28;20396;-87
2024/01/06 03:32:55;;;;;;;1.67;1.57;;;;;;;8.54;56.87;100850.88;5047148;28;20384;-85
2024/01/06 03:35:21;;;;;;;1.00;0.90;;;;;;;8.47;57.12;100833.16;5047625;28;21252;-86
2024/01/06 03:37:47;;;;;;;0.50;0.50;;;;;;;8.36;57.16;100836.84;5051031;28;20981;-89
2024/01/06 03:40:14;;;;;;;0.65;0.65;;;;;;;8.32;56.94;100824.91;5051936;28;20389;-85
2024/01/06 03:42:40;;;;;;;3.55;1.77;;;;;;;8.40;56.90;100824.97;5059651;28;20454;-87
2024/01/06 03:45:06;;;;;;;0.40;0.40;;;;;;;8.44;56.78;100834.28;5071560;28;20400;-85
2024/01/06 03:47:32;;;;;;;0.35;0.35;;;;;;;8.38;56.70;100838.34;5053172;28;20479;-88
2024/01/06 03:49:57;;;;;;;1.20;1.00;;;;;;;8.37;56.65;100823.50;5051268;28;20467;-85
2024/01/06 03:52:23;;;;;;;0.77;0.77;;;;;;;8.30;56.63;100838.28;5051541;28;20415;-86
2024/01/06 03:54:48;;;;;;;2.10;1.70;;;;;;;8.14;56.83;100825.75;5050354;28;20439;-88
2024/01/06 03:57:14;;;;;;;0.60;0.60;;;;;;;8.14;57.36;100835.47;5050777;28;20748;-85
2024/01/06 03:59:40;;;;;;;0.50;0.50;;;;;;;8.27;56.70;100821.91;5055117;28;20393;-87
2024/01/06 04:02:07;;;;;;;0.70;0.70;;;;;;;8.38;56.20;100821.66;5058944;28;20475;-84
2024/01/06 04:04:33;;;;;;;0.50;0.50;;;;;;;8.54;56.10;100835.03;5066836;28;20406;-88
2024/01/06 04:07:01;;;;;;;0.20;0.20;;;;;;;8.57;55.81;100832.09;5031837;28;20398;-88
2024/01/06 04:09:27;;;;;;;0.50;0.50;;;;;;;8.41;55.73;100816.09;5032186;28;20761;-88
2024/01/06 04:11:52;;;;;;;0.90;0.85;;;;;;;8.08;57.03;100807.03;5029655;28;20394;-87
2024/01/06 04:14:18;;;;;;;0.57;0.57;;;;;;;8.01;57.07;100812.09;5048058;28;20437;-89
2024/01/06 04:16:43;;;;;;;0.40;0.40;;;;;;;8.17;56.84;100817.50;5033289;28;20382;-88
2024/01/06 04:19:11;;;;;;;1.00;0.90;;;;;;;8.27;56.39;100819.28;5033118;28;20831;-88
2024/01/06 04:21:37;;;;;;;0.20;0.20;;;;;;;8.33;56.24;100816.81;5048611;28;20433;-88
2024/01/06 04:24:02;;;;;;;0.20;0.20;;;;;;;8.40;55.75;100803.84;5048482;28;20485;-87
2024/01/06 04:26:28;;;;;;;0.55;0.55;;;;;;;8.18;56.34;100789.31;5030117;28;20484;-87
2024/01/06 04:28:54;;;;;;;0.83;0.83;;;;;;;7.97;56.92;100801.00;5046527;28;20417;-87
2024/01/06 04:31:19;;;;;;;0.37;0.37;;;;;;;8.11;56.61;100802.28;5030100;28;20473;-87
2024/01/06 04:33:45;;;;;;;0.30;0.30;;;;;;;8.16;56.49;100789.47;5030819;28;20899;-87
2024/01/06 04:36:10;;;;;;;0.30;0.30;;;;;;;8.12;56.27;100779.34;5030395;28;20416;-89
2024/01/06 04:38:36;;;;;;;0.30;0.30;;;;;;;8.15;56.21;100782.50;5031046;28;20386;-88
2024/01/06 04:41:02;;;;;;;0.40;0.40;;;;;;;8.20;56.28;100790.81;5050717;28;20396;-89
2024/01/06 04:43:27;;;;;;;0.83;0.83;;;;;;;8.20;56.15;100790.00;5051511;28;20462;-89
2024/01/06 04:45:53;;;;;;;0.52;0.52;;;;;;;8.25;55.93;100808.84;5049038;28;20435;-90
2024/01/06 04:48:19;;;;;;;0.50;0.50;;;;;;;8.33;56.26;100800.97;5050295;28;20483;-86
2024/01/06 04:50:44;;;;;;;0.70;0.70;;;;;;;8.10;56.37;100794.53;5050232;28;20392;-85
2024/01/06 04:53:10;;;;;;;0.27;0.27;;;;;;;8.03;56.73;100789.84;5049600;28;20942;-88
2024/01/06 04:55:35;;;;;;;0.80;0.80;;;;;;;7.95;57.38;100787.13;5050182;28;20459;-88
2024/01/06 04:58:01;;;;;;;0.70;0.70;;;;;;;8.04;56.93;100807.34;5050262;28;20546;-87
2024/01/06 05:00:27;;;;;;;0.52;0.52;;;;;;;8.13;56.77;100807.44;5051531;28;20471;-89
2024/01/06 05:02:53;;;;;;;0.80;0.80;;;;;;;8.12;56.70;100793.41;5050548;28;20471;-87
2024/01/06 05:05:18;;;;;;;1.27;1.20;;;;;;;8.14;56.37;100799.34;5048791;28;20393;-88
2024/01/06 05:07:44;;;;;;;0.50;0.50;;;;;;;8.19;56.37;100815.56;5050814;28;20414;-88
2024/01/06 05:10:10;;;;;;;0.40;0.40;;;;;;;8.22;56.23;100809.16;5051406;28;20903;-90
2024/01/06 05:12:35;;;;;;;0.40;0.40;;;;;;;8.33;56.28;100818.66;5049990;28;20392;-88
2024/01/06 05:15:01;;;;;;;0.52;0.52;;;;;;;8.37;56.38;100833.19;5054369;28;20891;-88
2024/01/06 05:17:27;;;;;;;0.60;0.50;;;;;;;8.41;56.20;100835.41;5059853;28;20492;-89
2024/01/06 05:19:53;;;;;;;2.20;1.73;;;;;;;8.32;56.21;100806.41;5058964;28;20381;-87
2024/01/06 05:22:18;;;;;;;0.52;0.50;;;;;;;8.19;56.87;100804.16;5059348;28;20393;-88
2024/01/06 05:24:44;;;;;;;0.70;0.57;;;;;;;8.15;56.74;100814.19;5059723;28;20498;-87
2024/01/06 05:27:10;;;;;;;0.40;0.40;;;;;;;8.27;56.52;100819.28;5058596;28;20804;-88
2024/01/06 05:29:36;;;;;;;0.40;0.40;;;;;;;8.41;56.68;100813.44;5059552;28;20377;-89
2024/01/06 05:32:01;;;;;;;0.70;0.70;;;;;;;8.46;56.20;100808.53;5059223;28;20397;-89
2024/01/06 05:34:27;;;;;;;1.13;1.03;;;;;;;8.39;56.40;100820.66;5058244;28;20488;-88
2024/01/06 05:36:53;;;;;;;0.70;0.70;;;;;;;8.30;56.51;100803.94;5058010;28;20393;-89
2024/01/06 05:39:19;;;;;;;1.50;1.30;;;;;;;8.41;56.48;100805.53;5059067;28;20392;-90
2024/01/06 05:41:44;;;;;;;0.60;0.60;;;;;;;8.48;56.04;100789.91;5071531;28;20416;-91
2024/01/06 05:44:10;;;;;;;0.80;0.80;;;;;;;8.45;55.94;100787.59;5072802;28;20488;-89
2024/01/06 05:46:36;;;;;;;1.40;1.10;;;;;;;8.41;56.19;100798.41;5065367;28;20423;-89
2024/01/06 05:49:05;;;;;;;0.60;0.60;;;;;;;8.51;55.65;100800.97;5071888;28;20548;-90
2024/01/06 05:51:31;;;;;;;2.10;0.98;;;;;;;8.61;55.88;100803.53;5060303;28;20392;-88
2024/01/06 05:53:56;;;;;;;1.20;1.10;;;;;;;8.63;55.44;100796.28;5049536;28;20403;-87
2024/01/06 05:56:25;;;;;;;1.27;1.17;;;;;;;8.32;56.12;100790.56;5049050;28;20396;-88
2024/01/06 05:58:50;;;;;;;0.77;0.77;;;;;;;8.12;56.67;100788.13;5049596;28;20499;-87
2024/01/06 06:01:16;;;;;;;0.67;0.67;;;;;;;8.19;56.38;100799.72;5055189;28;20404;-86
2024/01/06 06:03:43;;;;;;;1.25;1.20;;;;;;;8.05;56.68;100784.44;5066218;28;20397;-88
2024/01/06 06:06:08;;;;;;;0.60;0.60;;;;;;;8.24;56.73;100799.25;5049004;28;20381;-87
2024/01/06 06:08:34;;;;;;;0.30;0.30;;;;;;;8.32;56.18;100793.22;5049347;28;20846;-86
2024/01/06 06:11:05;;;;;;;0.50;0.50;;;;;;;8.39;56.16;100796.91;5048348;28;20396;-87
2024/01/06 06:13:31;;;;;;;0.70;0.70;;;;;;;8.37;55.99;100797.06;5048378;28;20755;-85
2024/01/06 06:15:59;;;;;;;0.97;0.90;;;;;;;8.19;56.33;100807.66;5047823;28;20415;-85
2024/01/06 06:18:25;;;;;;;1.45;1.35;;;;;;;8.14;56.19;100817.00;5049384;28;20420;-84
2024/01/06 06:20:51;;;;;;;0.43;0.43;;;;;;;8.12;56.07;100809.25;5049980;28;20432;-85
2024/01/06 06:23:17;;;;;;;1.13;1.03;;;;;;;8.12;56.27;100811.03;5047311;28;20373;-86
2024/01/06 06:25:42;;;;;;;0.73;0.73;;;;;;;8.14;56.26;100807.28;5047142;28;20472;-85
2024/01/06 06:28:08;;;;;;;1.40;1.30;;;;;;;8.12;56.52;100809.25;5047333;28;20440;-88
2024/01/06 06:30:34;;;;;;;0.40;0.40;;;;;;;8.11;56.64;100812.03;5046750;28;20818;-86
2024/01/06 06:32:59;;;;;;;0.40;0.40;;;;;;;8.17;55.84;100816.69;5047168;28;20419;-85
2024/01/06 06:35:28;;;;;;;0.87;0.87;;;;;;;8.09;56.39;100819.28;5048679;28;20861;-87
2024/01/06 06:37:54;;;;;;;1.42;1.33;;;;;;;7.83;57.19;100814.72;5048001;28;20385;-85
2024/01/06 06:40:20;;;;;;;1.20;1.10;;;;;;;7.93;56.84;100836.59;5048610;28;20806;-83
2024/01/06 06:42:45;;;;;;;0.93;0.83;;;;;;;7.93;56.87;100823.41;5047754;28;20806;-86
2024/01/06 06:45:11;;;;;;;0.70;0.70;;;;;;;7.89;56.96;100835.25;5048247;28;20830;-85
2024/01/06 06:47:37;;;;;;;2.50;0.77;;;;;;;7.93;57.14;100825.22;5048804;28;20450;-85
2024/01/06 06:50:03;;;;;;;0.60;0.50;;;;;;;8.02;56.67;100821.69;5049240;28;20385;-85
2024/01/06 06:52:28;;;;;;;4.03;3.72;;;;;;;7.98;57.16;100826.44;5059617;28;20818;-87
2024/01/06 06:54:54;;;;;;;1.80;1.70;;;;;;;7.90;56.88;100836.06;5047993;28;20787;-85
2024/01/06 06:57:20;;;;;;;0.90;0.90;;;;;;;8.08;56.42;100809.69;5049052;28;20392;-87
2024/01/06 06:59:45;;;;;;;0.57;0.57;;;;;;;8.12;56.28;100795.19;5051020;28;20456;-87
2024/01/06 07:02:11;;;;;;;0.83;0.83;;;;;;;8.14;56.28;100804.63;5050160;28;21415;-85
2024/01/06 07:04:37;;;;;;;0.60;0.60;;;;;;;8.25;56.31;100811.50;5049534;28;20389;-86
2024/01/06 07:07:03;;;;;;;0.43;0.43;;;;;;;8.35;56.12;100800.84;5060372;28;20391;-89
2024/01/06 07:09:28;;;;;;;0.57;0.57;;;;;;;8.42;55.95;100802.72;5054333;28;20389;-86
2024/01/06 07:11:54;;;;;;;0.60;0.50;;;;;;;8.37;56.27;100810.28;5048073;28;20385;-86
2024/01/06 07:14:19;;;;;;;0.80;0.80;;;;;;;8.33;56.10;100800.97;5047805;28;20425;-86
2024/01/06 07:16:45;;;;;;;0.90;0.80;;;;;;;8.47;56.10;100798.81;5047158;28;20395;-86
2024/01/06 07:19:11;;;;;;;0.40;0.40;;;;;;;8.52;55.76;100789.44;5047297;28;20453;-90
2024/01/06 07:21:37;;;;;;;0.35;0.35;;;;;;;8.47;55.79;100796.19;5046853;28;20380;-84
2024/01/06 07:24:02;;;;;;;0.40;0.40;;;;;;;8.49;55.77;100775.72;5047843;28;20437;-86
2024/01/06 07:26:28;;;;;;;0.95;0.95;;;;;;;8.49;55.95;100779.19;5047045;28;21496;-86
2024/01/06 07:28:54;;;;;;;0.43;0.43;;;;;;;8.55;55.78;100786.50;5047486;28;20400;-87
2024/01/06 07:31:20;;;;;;;0.40;0.40;;;;;;;8.55;55.78;100775.09;5053551;28;20407;-88
2024/01/06 07:33:46;;;;;;;0.60;0.60;;;;;;;8.66;55.96;100792.50;5059645;28;20405;-86
2024/01/06 07:36:11;;;;;;;0.40;0.40;;;;;;;8.71;55.43;100795.50;5050799;28;20409;-85
2024/01/06 07:38:37;;;;;;;0.90;0.82;;;;;;;8.64;55.79;100797.09;5044470;28;20399;-84
2024/01/06 07:41:04;;;;;;;1.20;1.10;;;;;;;8.51;56.33;100808.09;5044467;28;20763;-83
2024/01/06 07:43:30;;;;;;;1.90;1.80;;;;;;;8.45;56.11;100803.44;5037445;28;20394;-84
2024/01/06 07:45:56;;;;;;;1.55;1.45;;;;;;;8.48;56.01;100800.47;5049649;28;20401;-86
2024/01/06 07:48:22;;;;;;;1.20;1.10;;;;;;;8.60;56.56;100793.94;5049162;28;20399;-85
2024/01/06 07:50:47;;;;;;;1.38;1.27;;;;;;;8.72;55.91;100802.47;5048998;28;20405;-84
2024/01/06 07:53:16;;;;;;;4.30;1.43;;;;;;;8.66;56.26;100803.06;5049833;28;20409;-86
2024/01/06 07:55:41;;;;;;;1.45;1.02;;;;;;;8.69;56.06;100792.19;5046874;28;20439;-85
2024/01/06 07:58:07;;;;;;;0.30;0.30;;;;;;;8.85;56.06;100786.19;5049003;28;20416;-83
2024/01/06 08:00:33;;;;;;;1.37;0.83;;;;;;;8.79;55.57;100777.88;5055970;28;20450;-86
2024/01/06 08:02:58;;;;;;;0.60;0.60;;;;;;;8.64;56.13;100773.31;5065327;28;20385;-88
2024/01/06 08:05:27;;;;;;;0.80;0.80;;;;;;;8.65;56.50;100780.28;5058944;28;20767;-88
2024/01/06 08:07:53;;;;;;;0.80;0.77;;;;;;;8.80;55.78;100782.19;5050020;28;20389;-87
2024/01/06 08:10:18;;;;;;;1.30;0.68;;;;;;;8.94;55.81;100788.69;5047817;28;20403;-86
2024/01/06 08:12:44;;;;;;;1.00;1.00;;;;;;;8.92;54.95;100788.03;5048277;28;20390;-85
2024/01/06 08:15:10;;;;;;;2.70;0.97;;;;;;;8.97;55.67;100790.22;5048704;28;20444;-87
2024/01/06 08:17:36;;;;;;;0.93;0.73;;;;;;;9.10;55.10;100792.41;5048128;28;20381;-86
2024/01/06 08:20:03;;;;;;;0.40;0.40;;;;;;;9.24;55.43;100789.19;5049525;28;20380;-85
2024/01/06 08:22:29;;;;;;;0.60;0.45;;;;;;;9.32;55.05;100796.31;5050900;28;21024;-85
2024/01/06 08:24:57;;;;;;;2.70;2.50;;;;;;;9.37;54.61;100801.94;5051341;28;20384;-83
2024/01/06 08:27:23;;;;;;;0.30;0.30;;;;;;;9.45;54.96;100801.97;5051507;28;20470;-85
2024/01/06 08:29:49;;;;;;;0.20;0.20;;;;;;;9.57;54.62;100795.38;5051669;28;20879;-86
2024/01/06 08:32:16;;;;;;;0.50;0.50;;;;;;;9.57;54.40;100784.81;5051822;28;20762;-86
2024/01/06 08:34:42;;;;;;;0.30;0.20;;;;;;;9.70;54.29;100792.28;5052185;28;20495;-84
2024/01/06 08:37:08;;;;;;;0.43;0.43;;;;;;;9.66;54.44;100771.59;5052128;28;20392;-86
2024/01/06 08:39:33;;;;;;;0.90;0.90;;;;;;;9.62;54.63;100778.22;5051558;28;20496;-85
2024/01/06 08:41:59;;;;;;;0.50;0.50;;;;;;;9.69;54.55;100787.97;5051314;28;20885;-85
2024/01/06 08:44:25;;;;;;;0.65;0.65;;;;;;;9.69;54.14;100774.75;5051622;28;20794;-86
2024/01/06 08:46:50;;;;;;;0.40;0.40;;;;;;;9.72;54.06;100786.81;5052541;28;20756;-86
2024/01/06 08:49:19;;;;;;;0.70;0.70;;;;;;;9.86;53.83;100791.47;5050793;28;20384;-86
2024/01/06 08:51:48;;;;;;;0.45;0.45;;;;;;;9.92;53.89;100795.28;5051845;28;20471;-84
2024/01/06 08:54:17;;;;;;;0.50;0.50;;;;;;;10.00;53.65;100790.00;5050823;28;20401;-85
2024/01/06 08:56:42;;;;;;;0.95;0.90;;;;;;;10.07;53.92;100796.31;5050813;28;20388;-85
2024/01/06 08:59:11;;;;;;;0.60;0.60;;;;;;;10.16;53.69;100786.56;5050685;28;20743;-83
2024/01/06 09:01:43;;;;;;;1.95;0.95;;;;;;;10.24;53.31;100783.88;5051903;28;20895;-87
2024/01/06 09:04:11;;;;;;;0.70;0.70;;;;;;;10.17;52.96;100797.97;5052008;28;20469;-85
2024/01/06 09:06:37;;;;;;;0.50;0.50;;;;;;;10.17;53.68;100792.66;5052585;28;20859;-85
2024/01/06 09:09:06;;;;;;;0.70;0.70;;;;;;;10.16;53.30;100770.66;5051723;28;20403;-89
2024/01/06 09:11:31;;;;;;;0.70;0.70;;;;;;;10.12;52.69;100745.50;5050451;28;20455;-85
2024/01/06 09:14:00;;;;;;;0.97;0.97;;;;;;;9.87;52.97;100744.66;5051602;28;20400;-85
2024/01/06 09:16:29;;;;;;;1.40;1.30;;;;;;;10.06;53.05;100762.03;5051906;28;20962;-86
2024/01/06 09:18:54;;;;;;;1.83;1.73;;;;;;;10.22;52.85;100748.78;5052452;28;20995;-85
2024/01/06 09:21:23;;;;;;;2.00;1.90;;;;;;;9.86;53.67;100756.25;5052049;28;20407;-86
2024/01/06 09:23:54;;;;;;;1.27;1.17;;;;;;;9.74;54.01;100761.84;5049144;28;20384;-87
2024/01/06 09:26:22;;;;;;;1.30;1.20;;;;;;;9.88;54.26;100757.72;5049514;28;20401;-87
2024/01/06 09:28:48;;;;;;;0.50;0.50;;;;;;;10.08;53.64;100746.81;5049595;28;20391;-85
2024/01/06 09:31:16;;;;;;;0.95;0.57;;;;;;;10.30;53.60;100754.09;5048606;28;20381;-86
2024/01/06 09:33:44;;;;;;;0.70;0.70;;;;;;;10.33;52.99;100743.19;5049334;28;20480;-87
2024/01/06 09:36:13;;;;;;;0.67;0.67;;;;;;;10.31;52.63;100734.56;5049650;28;20408;-86
2024/01/06 09:38:39;;;;;;;0.43;0.43;;;;;;;10.37;52.94;100733.09;5051315;28;20487;-85
2024/01/06 09:41:07;;;;;;;0.60;0.60;;;;;;;10.38;52.98;100726.78;5056183;28;20408;-84
2024/01/06 09:43:37;;;;;;;1.23;1.13;;;;;;;10.44;52.79;100734.06;5061697;28;20806;-86
2024/01/06 09:46:16;;;;;;;0.75;0.75;;;;;;;10.50;52.64;100724.63;5052100;28;20395;-85
2024/01/06 09:48:49;;;;;;;0.63;0.63;;;;;;;10.64;52.60;100731.88;5051490;28;20392;-86
2024/01/06 09:51:15;;;;;;;0.77;0.77;;;;;;;10.73;52.35;100722.03;5050842;28;21012;-85
2024/01/06 09:53:52;;;;;;;1.20;1.10;;;;;;;10.48;52.21;100716.84;5051418;28;20408;-86
2024/01/06 09:56:21;;;;;;;0.82;0.82;;;;;;;10.43;52.60;100708.56;5051171;28;20911;-87
2024/01/06 09:58:47;;;;;;;0.98;0.90;;;;;;;10.51;52.83;100705.91;5052838;28;20381;-86
2024/01/06 10:01:14;;;;;;;3.75;1.60;;;;;;;10.63;52.32;100700.22;5042436;28;20496;-84
2024/01/06 10:03:46;;;;;;;0.55;0.55;;;;;;;10.69;52.05;100695.03;5059727;28;20399;-83
2024/01/06 10:06:15;;;;;;;0.32;0.32;;;;;;;10.83;52.10;100700.66;5052276;28;20401;-85
2024/01/06 10:08:51;;;;;;;2.70;2.10;;;;;;;10.88;51.60;100708.91;5052139;28;20404;-87
2024/01/06 10:11:21;;;;;;;0.73;0.73;;;;;;;10.90;51.59;100693.66;5052080;28;20463;-85
2024/01/06 10:13:51;;;;;;;0.68;0.68;;;;;;;11.01;51.63;100689.78;5050416;28;20938;-84
2024/01/06 10:16:22;;;;;;;0.60;0.60;;;;;;;11.08;51.32;100685.44;5034441;28;20397;-85
2024/01/06 10:18:47;;;;;;;0.80;0.80;;;;;;;11.10;51.29;100676.31;5048874;28;20399;-84
2024/01/06 10:21:17;;;;;;;0.67;0.53;;;;;;;11.08;51.44;100670.34;5049413;28;20471;-85
2024/01/06 10:23:43;;;;;;;0.55;0.55;;;;;;;11.08;51.22;100648.31;5050293;28;20898;-85
2024/01/06 10:26:15;;;;;;;0.70;0.70;;;;;;;10.86;50.98;100653.41;5049242;28;20900;-87
2024/01/06 10:28:45;;;;;;;1.08;0.93;;;;;;;10.88;50.93;100664.66;5048813;28;20424;-86
2024/01/06 10:31:11;;;;;;;0.52;0.30;;;;;;;10.84;50.61;100659.84;5050521;28;20763;-86
2024/01/06 10:33:43;;;;;;;0.63;0.63;;;;;;;11.00;50.49;100666.91;5051562;28;20403;-86
2024/01/06 10:36:12;;;;;;;0.70;0.70;;;;;;;11.10;50.68;100662.22;5050107;28;21005;-86
2024/01/06 10:38:42;;;;;;;0.40;0.40;;;;;;;11.08;50.68;100661.56;5049696;28;20396;-84
2024/01/06 10:41:11;;;;;;;0.55;0.55;;;;;;;11.12;50.69;100657.56;5050643;28;20385;-84
2024/01/06 10:43:43;;;;;;;2.22;1.83;;;;;;;11.04;50.50;100645.19;5033808;28;20392;-85
2024/01/06 10:46:12;;;;;;;1.92;1.45;;;;;;;10.63;50.26;100620.69;5050004;28;20907;-86
2024/01/06 10:48:45;;;;;;;1.00;1.00;;;;;;;10.55;50.89;100620.72;5049718;28;20469;-88
2024/01/06 10:51:14;;;;;;;0.90;0.90;;;;;;;10.79;50.67;100625.09;5049500;28;20424;-87
2024/01/06 10:53:41;;;;;;;1.40;1.30;;;;;;;10.68;49.98;100618.38;5032848;28;20404;-85
2024/01/06 10:56:09;;;;;;;1.05;1.02;;;;;;;10.55;50.46;100610.13;5049462;28;20431;-85
2024/01/06 10:58:42;;;;;;;0.93;0.82;;;;;;;10.43;50.14;100607.84;5033460;28;20393;-85
2024/01/06 11:01:17;;;;;;;0.80;0.80;;;;;;;10.52;50.47;100611.31;5052642;28;20396;-83
2024/01/06 11:03:45;;;;;;;1.17;1.08;;;;;;;10.81;50.31;100623.91;5035165;28;20399;-84
2024/01/06 11:06:16;;;;;;;0.70;0.70;;;;;;;10.96;49.93;100618.69;5050658;28;20432;-85
2024/01/06 11:09:24;;;;;;;0.60;0.60;;;;;;;10.86;49.46;100624.22;5050740;28;20970;-85
2024/01/06 11:11:53;;;;;;;0.50;0.50;;;;;;;10.94;49.71;100622.53;5049027;28;20400;-85
2024/01/06 11:14:28;;;;;;;0.33;0.33;;;;;;;11.01;49.81;100612.88;5047944;28;20403;-85
2024/01/06 11:16:54;;;;;;;0.30;0.30;;;;;;;10.95;49.43;100602.94;5048085;28;20420;-85
2024/01/06 11:19:38;;;;;;;0.32;0.32;;;;;;;10.93;49.54;100591.69;5031757;28;20391;-86
2024/01/06 11:22:31;;;;;;;0.85;0.85;;;;;;;11.07;49.46;100580.31;5048266;28;20748;-85
2024/01/06 11:25:14;;;;;;;0.50;0.50;;;;;;;11.14;49.31;100580.47;5046749;28;20872;-85
2024/01/06 11:27:44;;;;;;;1.88;1.48;;;;;;;11.18;49.27;100585.25;5047355;28;20911;-87
2024/01/06 11:30:23;;;;;;;0.80;0.80;;;;;;;11.22;49.55;100583.88;5046781;28;20385;-86